createdAt,value
2023-04-16T00:01:44.288Z,4.83
2023-04-16T00:04:12.506Z,4.87
2023-04-16T00:06:40.618Z,5.33
2023-04-16T00:09:08.651Z,5.07
2023-04-16T00:11:38.040Z,5.77
2023-04-16T00:14:06.099Z,6.07
2023-04-16T00:16:34.665Z,5.83
2023-04-16T00:19:02.494Z,6.00
2023-04-16T00:21:31.240Z,6.03
2023-04-16T00:23:59.118Z,5.53
2023-04-16T00:26:26.952Z,5.57
2023-04-16T00:28:56.127Z,6.07
2023-04-16T00:31:29.123Z,5.70
2023-04-16T00:33:57.145Z,6.30
2023-04-16T00:36:25.171Z,5.83
2023-04-16T00:38:53.165Z,5.47
2023-04-16T00:41:21.623Z,6.00
2023-04-16T00:43:49.632Z,5.73
2023-04-16T00:46:21.304Z,5.43
2023-04-16T00:48:50.110Z,6.23
2023-04-16T00:51:21.384Z,5.50
2023-04-16T00:53:49.546Z,5.37
2023-04-16T00:56:17.922Z,5.63
2023-04-16T00:58:46.018Z,5.13
2023-04-16T01:01:14.725Z,5.47
2023-04-16T01:03:45.822Z,4.67
2023-04-16T01:06:14.449Z,5.07
2023-04-16T01:08:42.254Z,4.43
2023-04-16T01:11:12.133Z,4.00
2023-04-16T01:13:40.049Z,3.97
2023-04-16T01:16:08.303Z,4.00
2023-04-16T01:18:37.221Z,4.13
2023-04-16T01:21:07.159Z,4.07
2023-04-16T01:23:35.363Z,4.10
2023-04-16T01:26:03.161Z,4.30
2023-04-16T01:28:31.023Z,3.97
2023-04-16T01:30:58.935Z,4.60
2023-04-16T01:33:26.813Z,5.00
2023-04-16T01:35:54.886Z,5.20
2023-04-16T01:38:24.140Z,4.93
2023-04-16T01:40:51.967Z,5.17
2023-04-16T01:43:19.814Z,4.97
2023-04-16T01:45:47.702Z,5.20
2023-04-16T01:48:15.517Z,5.27
2023-04-16T01:50:43.512Z,4.90
2023-04-16T01:53:11.460Z,4.87
2023-04-16T01:55:40.612Z,4.83
2023-04-16T01:58:11.072Z,4.83
2023-04-16T02:00:39.123Z,5.00
2023-04-16T02:03:07.054Z,5.93
2023-04-16T02:05:34.903Z,6.00
2023-04-16T02:08:02.749Z,6.27
2023-04-16T02:10:30.568Z,6.10
2023-04-16T02:12:59.754Z,6.63
2023-04-16T02:15:27.571Z,5.60
2023-04-16T02:17:57.118Z,6.23
2023-04-16T02:20:25.206Z,6.30
2023-04-16T02:22:53.230Z,6.13
2023-04-16T02:25:21.262Z,5.93
2023-04-16T02:27:49.073Z,5.80
2023-04-16T02:30:18.797Z,6.20
2023-04-16T02:32:46.786Z,5.53
2023-04-16T02:35:14.590Z,4.93
2023-04-16T02:37:42.345Z,5.20
2023-04-16T02:40:11.649Z,5.53
2023-04-16T02:42:39.472Z,5.47
2023-04-16T02:45:08.348Z,5.07
2023-04-16T02:47:37.853Z,5.63
2023-04-16T02:50:07.024Z,5.43
2023-04-16T02:52:34.953Z,5.90
2023-04-16T02:55:03.114Z,6.07
2023-04-16T02:57:31.190Z,5.90
2023-04-16T02:59:59.198Z,6.13
2023-04-16T03:02:27.417Z,6.20
2023-04-16T03:04:56.657Z,6.57
2023-04-16T03:07:24.765Z,7.27
2023-04-16T03:09:52.884Z,7.07
2023-04-16T03:12:20.864Z,6.07
2023-04-16T03:14:48.743Z,6.50
2023-04-16T03:17:16.771Z,5.80
2023-04-16T03:19:44.676Z,6.03
2023-04-16T03:22:13.916Z,6.00
2023-04-16T03:24:41.842Z,5.67
2023-04-16T03:27:09.759Z,5.97
2023-04-16T03:29:38.091Z,6.67
2023-04-16T03:32:05.992Z,6.20
2023-04-16T03:34:33.864Z,6.50
2023-04-16T03:37:01.819Z,6.07
2023-04-16T03:39:31.173Z,6.97
2023-04-16T03:41:59.209Z,6.40
2023-04-16T03:44:27.109Z,6.17
2023-04-16T03:46:55.223Z,6.80
2023-04-16T03:49:23.163Z,8.40
2023-04-16T03:51:51.271Z,6.23
2023-04-16T03:54:21.314Z,7.20
2023-04-16T03:56:52.237Z,7.40
2023-04-16T03:59:20.087Z,7.03
2023-04-16T04:01:48.080Z,7.40
2023-04-16T04:04:16.371Z,7.13
2023-04-16T04:06:46.182Z,7.43
2023-04-16T04:09:14.088Z,7.00
2023-04-16T04:11:41.929Z,6.67
2023-04-16T04:14:11.175Z,7.90
2023-04-16T04:16:39.112Z,7.10
2023-04-16T04:19:07.027Z,7.17
2023-04-16T04:21:34.999Z,7.60
2023-04-16T04:24:02.869Z,7.77
2023-04-16T04:26:30.859Z,7.13
2023-04-16T04:28:58.780Z,7.67
2023-04-16T04:31:28.022Z,7.97
2023-04-16T04:33:56.399Z,7.70
2023-04-16T04:36:24.265Z,8.13
2023-04-16T04:38:52.199Z,8.30
2023-04-16T04:41:20.145Z,7.70
2023-04-16T04:43:48.109Z,7.17
2023-04-16T04:46:16.019Z,7.97
2023-04-16T04:48:45.290Z,8.40
2023-04-16T04:51:13.131Z,7.60
2023-04-16T04:53:41.011Z,7.83
2023-04-16T04:56:12.720Z,7.97
2023-04-16T04:58:41.494Z,8.47
2023-04-16T05:01:09.394Z,8.13
2023-04-16T05:03:37.536Z,8.33
2023-04-16T05:06:08.325Z,8.13
2023-04-16T05:08:36.433Z,8.43
2023-04-16T05:11:04.355Z,7.97
2023-04-16T05:13:32.130Z,8.00
2023-04-16T05:16:00.110Z,8.47
2023-04-16T05:18:27.944Z,8.83
2023-04-16T05:20:56.024Z,9.07
2023-04-16T05:23:25.317Z,8.27
2023-04-16T05:25:53.179Z,8.30
2023-04-16T05:28:21.076Z,9.07
2023-04-16T05:30:49.018Z,8.60
2023-04-16T05:33:17.166Z,8.67
2023-04-16T05:35:45.075Z,8.50
2023-04-16T05:38:12.941Z,7.53
2023-04-16T05:40:42.153Z,7.17
2023-04-16T05:43:10.085Z,8.30
2023-04-16T05:45:41.278Z,6.83
2023-04-16T05:48:10.056Z,6.97
2023-04-16T05:50:38.662Z,7.67
2023-04-16T05:53:08.652Z,6.90
2023-04-16T05:55:36.935Z,7.23
2023-04-16T05:58:06.368Z,7.50
2023-04-16T06:00:34.771Z,6.93
2023-04-16T06:03:03.871Z,7.67
2023-04-16T06:05:32.253Z,7.53
2023-04-16T06:08:00.458Z,7.87
2023-04-16T06:10:28.495Z,8.63
2023-04-16T06:12:56.343Z,8.30
2023-04-16T06:15:25.681Z,8.23
2023-04-16T06:17:53.567Z,7.60
2023-04-16T06:20:21.592Z,7.03
2023-04-16T06:22:49.452Z,7.93
2023-04-16T06:25:18.293Z,7.17
2023-04-16T06:27:46.265Z,7.53
2023-04-16T06:30:14.961Z,7.77
2023-04-16T06:32:46.562Z,7.53
2023-04-16T06:35:14.763Z,7.87
2023-04-16T06:37:42.791Z,7.80
2023-04-16T06:40:11.522Z,7.50
2023-04-16T06:42:39.655Z,7.30
2023-04-16T06:45:09.234Z,7.87
2023-04-16T06:47:37.207Z,8.03
2023-04-16T06:50:07.573Z,7.57
2023-04-16T06:52:35.805Z,7.43
2023-04-16T06:55:03.993Z,7.40
2023-04-16T06:57:32.050Z,7.60
2023-04-16T06:59:59.894Z,7.40
2023-04-16T07:02:28.002Z,7.00
2023-04-16T07:04:56.044Z,7.40
2023-04-16T07:07:25.671Z,6.73
2023-04-16T07:09:56.554Z,6.80
2023-04-16T07:12:24.526Z,6.80
2023-04-16T07:14:52.431Z,7.37
2023-04-16T07:17:20.504Z,6.63
2023-04-16T07:19:48.421Z,6.37
2023-04-16T07:22:16.697Z,7.27
2023-04-16T07:24:46.064Z,7.23
2023-04-16T07:27:13.923Z,7.50
2023-04-16T07:29:41.992Z,7.53
2023-04-16T07:32:10.093Z,7.50
2023-04-16T07:34:37.993Z,7.50
2023-04-16T07:37:05.980Z,7.33
2023-04-16T07:39:33.869Z,7.60
2023-04-16T07:42:03.166Z,7.53
2023-04-16T07:44:31.225Z,7.10
2023-04-16T07:46:59.190Z,7.07
2023-04-16T07:49:27.191Z,7.40
2023-04-16T07:51:54.966Z,7.70
2023-04-16T07:54:22.765Z,6.40
2023-04-16T07:56:50.633Z,6.70
2023-04-16T07:59:23.561Z,6.23
2023-04-16T08:01:54.551Z,6.87
2023-04-16T08:04:25.415Z,7.20
2023-04-16T08:06:54.539Z,7.00
2023-04-16T08:09:24.608Z,6.57
2023-04-16T08:11:52.600Z,6.90
2023-04-16T08:14:21.969Z,7.17
2023-04-16T08:16:49.952Z,6.90
2023-04-16T08:19:17.858Z,6.90
2023-04-16T08:21:45.790Z,7.53
2023-04-16T08:24:13.756Z,6.93
2023-04-16T08:26:41.664Z,7.87
2023-04-16T08:29:09.665Z,7.47
2023-04-16T08:31:40.186Z,6.87
2023-04-16T08:34:08.029Z,7.30
2023-04-16T08:36:35.830Z,8.10
2023-04-16T08:39:03.762Z,7.63
2023-04-16T08:41:33.432Z,7.33
2023-04-16T08:44:06.066Z,7.17
2023-04-16T08:46:37.873Z,8.63
2023-04-16T08:49:09.320Z,6.93
2023-04-16T08:51:37.792Z,7.83
2023-04-16T08:54:09.934Z,7.03
2023-04-16T08:56:38.955Z,7.00
2023-04-16T08:59:07.882Z,7.47
2023-04-16T09:01:36.648Z,6.73
2023-04-16T09:04:06.335Z,7.00
2023-04-16T09:06:37.506Z,6.73
2023-04-16T09:09:06.256Z,6.53
2023-04-16T09:11:34.208Z,6.30
2023-04-16T09:14:02.733Z,7.37
2023-04-16T09:16:34.660Z,6.33
2023-04-16T09:19:02.588Z,7.03
2023-04-16T09:21:31.040Z,6.30
2023-04-16T09:24:01.168Z,6.13
2023-04-16T09:26:29.222Z,6.07
2023-04-16T09:28:56.992Z,5.27
2023-04-16T09:31:24.938Z,5.57
2023-04-16T09:34:04.214Z,6.07
2023-04-16T09:36:33.726Z,6.23
2023-04-16T09:39:03.911Z,6.53
2023-04-16T09:41:35.941Z,6.27
2023-04-16T09:44:05.605Z,5.60
2023-04-16T09:46:36.606Z,5.87
2023-04-16T09:49:09.965Z,5.73
2023-04-16T09:51:38.923Z,5.70
2023-04-16T09:54:08.708Z,6.07
2023-04-16T09:56:41.245Z,6.20
2023-04-16T09:59:10.103Z,8.33
2023-04-16T10:01:38.528Z,6.10
2023-04-16T10:04:08.108Z,5.50
2023-04-16T10:06:36.190Z,5.60
2023-04-16T10:09:10.921Z,6.00
2023-04-16T10:11:39.036Z,5.80
2023-04-16T10:14:06.885Z,5.97
2023-04-16T10:16:35.748Z,6.30
2023-04-16T10:19:03.774Z,6.37
2023-04-16T10:21:34.433Z,6.23
2023-04-16T10:24:02.752Z,6.00
2023-04-16T10:26:32.576Z,5.77
2023-04-16T10:29:01.194Z,5.77
2023-04-16T10:31:30.203Z,5.93
2023-04-16T10:33:59.547Z,5.67
2023-04-16T10:36:27.729Z,5.87
2023-04-16T10:39:00.770Z,5.67
2023-04-16T10:41:28.950Z,5.63
2023-04-16T10:44:09.527Z,5.77
2023-04-16T10:46:39.815Z,5.60
2023-04-16T10:49:15.534Z,6.10
2023-04-16T10:51:43.410Z,5.70
2023-04-16T10:54:22.903Z,5.20
2023-04-16T10:56:51.522Z,5.40
2023-04-16T10:59:22.469Z,5.90
2023-04-16T11:01:52.459Z,5.50
2023-04-16T11:04:45.152Z,5.70
2023-04-16T11:07:33.087Z,5.63
2023-04-16T11:10:02.491Z,5.57
2023-04-16T11:12:35.941Z,5.30
2023-04-16T11:15:06.749Z,5.90
2023-04-16T11:17:38.295Z,5.87
2023-04-16T11:20:17.389Z,5.63
2023-04-16T11:22:49.022Z,6.17
2023-04-16T11:25:20.942Z,6.17
2023-04-16T11:27:48.729Z,6.47
2023-04-16T11:30:18.818Z,6.13
2023-04-16T11:32:47.222Z,6.47
2023-04-16T11:35:16.313Z,5.87
2023-04-16T11:37:44.420Z,5.93
2023-04-16T11:40:13.328Z,5.60
2023-04-16T11:42:42.403Z,5.80
2023-04-16T11:45:12.493Z,5.60
2023-04-16T11:47:51.783Z,5.87
2023-04-16T11:50:22.159Z,6.47
2023-04-16T11:52:51.363Z,5.67
2023-04-16T11:55:19.743Z,5.73
2023-04-16T11:57:48.085Z,5.80
2023-04-16T12:00:16.745Z,6.10
2023-04-16T12:02:46.153Z,5.50
2023-04-16T12:05:34.037Z,5.90
2023-04-16T12:08:03.407Z,6.00
2023-04-16T12:10:36.070Z,5.63
2023-04-16T12:13:14.180Z,5.07
2023-04-16T12:15:48.991Z,6.20
2023-04-16T12:18:17.372Z,5.80
2023-04-16T12:20:47.536Z,5.50
2023-04-16T12:23:24.343Z,5.07
2023-04-16T12:25:52.270Z,5.67
2023-04-16T12:28:29.381Z,5.10
2023-04-16T12:30:57.632Z,5.10
2023-04-16T12:33:25.697Z,5.23
2023-04-16T12:35:55.015Z,5.00
2023-04-16T12:38:24.559Z,5.50
2023-04-16T12:40:56.572Z,5.63
2023-04-16T12:43:24.732Z,9.00
2023-04-16T12:45:52.599Z,5.40
2023-04-16T12:48:20.569Z,5.50
2023-04-16T12:50:48.416Z,5.43
2023-04-16T12:53:17.591Z,5.87
2023-04-16T12:55:45.906Z,5.70
2023-04-16T12:58:13.752Z,5.67
2023-04-16T13:00:41.570Z,5.77
2023-04-16T13:03:09.530Z,5.73
2023-04-16T13:05:37.420Z,5.70
2023-04-16T13:08:05.462Z,6.20
2023-04-16T13:10:34.928Z,6.17
2023-04-16T13:13:02.804Z,5.83
2023-04-16T13:15:30.748Z,6.37
2023-04-16T13:17:58.716Z,6.40
2023-04-16T13:20:26.748Z,6.37
2023-04-16T13:22:55.293Z,6.40
2023-04-16T13:25:23.120Z,5.73
2023-04-16T13:27:52.696Z,5.93
2023-04-16T13:30:20.680Z,5.97
2023-04-16T13:32:48.590Z,4.83
2023-04-16T13:35:16.423Z,5.87
2023-04-16T13:37:44.231Z,5.77
2023-04-16T13:40:12.067Z,5.50
2023-04-16T13:42:39.886Z,5.23
2023-04-16T13:45:10.218Z,5.03
2023-04-16T13:47:39.438Z,4.70
2023-04-16T13:50:08.076Z,5.20
2023-04-16T13:52:36.506Z,5.35
2023-04-16T13:55:04.623Z,4.95
2023-04-16T13:57:32.474Z,5.05
2023-04-16T14:00:00.364Z,4.85
2023-04-16T14:02:29.965Z,5.45
2023-04-16T14:04:57.810Z,5.30
2023-04-16T14:07:27.454Z,5.70
2023-04-16T14:09:55.503Z,5.00
2023-04-16T14:12:23.451Z,5.40
2023-04-16T14:14:51.444Z,5.10
2023-04-16T14:17:19.386Z,4.80
2023-04-16T14:19:48.672Z,5.40
2023-04-16T14:22:17.881Z,6.07
2023-04-16T14:24:45.838Z,5.17
2023-04-16T14:27:13.736Z,5.93
2023-04-16T14:29:42.118Z,5.57
2023-04-16T14:32:10.042Z,5.30
2023-04-16T14:34:38.017Z,5.50
2023-04-16T14:37:07.311Z,5.60
2023-04-16T14:39:36.449Z,5.70
2023-04-16T14:42:04.334Z,5.13
2023-04-16T14:44:32.219Z,5.43
2023-04-16T14:47:00.099Z,5.60
2023-04-16T14:49:28.127Z,5.97
2023-04-16T14:51:56.706Z,5.80
2023-04-16T14:54:26.571Z,5.90
2023-04-16T14:56:54.775Z,6.43
2023-04-16T14:59:22.814Z,6.60
2023-04-16T15:01:51.779Z,6.03
2023-04-16T15:04:19.964Z,5.93
2023-04-16T15:06:48.023Z,5.77
2023-04-16T15:09:15.939Z,5.57
2023-04-16T15:11:45.258Z,5.73
2023-04-16T15:14:13.492Z,5.83
2023-04-16T15:16:41.575Z,6.07
2023-04-16T15:19:10.070Z,6.00
2023-04-16T15:21:38.299Z,5.33
2023-04-16T15:24:06.618Z,6.00
2023-04-16T15:26:34.439Z,5.83
2023-04-16T15:29:03.645Z,5.97
2023-04-16T15:31:31.632Z,6.40
2023-04-16T15:34:00.797Z,6.20
2023-04-16T15:36:28.651Z,6.43
2023-04-16T15:38:56.558Z,6.43
2023-04-16T15:41:24.674Z,6.17
2023-04-16T15:43:52.564Z,5.97
2023-04-16T15:46:21.750Z,7.00
2023-04-16T15:48:49.634Z,5.90
2023-04-16T15:51:17.530Z,6.37
2023-04-16T15:53:45.543Z,5.83
2023-04-16T15:56:13.413Z,6.47
2023-04-16T15:58:41.589Z,5.53
2023-04-16T16:01:09.552Z,5.37
2023-04-16T16:03:38.968Z,5.73
2023-04-16T16:06:08.538Z,6.17
2023-04-16T16:08:38.280Z,6.20
2023-04-16T16:11:06.269Z,6.30
2023-04-16T16:13:35.956Z,6.07
2023-04-16T16:16:03.870Z,6.33
2023-04-16T16:18:31.819Z,6.00
2023-04-16T16:21:01.037Z,6.03
2023-04-16T16:23:28.927Z,6.20
2023-04-16T16:25:56.932Z,6.43
2023-04-16T16:28:25.205Z,5.63
2023-04-16T16:30:55.557Z,6.80
2023-04-16T16:33:23.708Z,5.93
2023-04-16T16:35:51.587Z,6.07
2023-04-16T16:38:20.908Z,6.40
2023-04-16T16:40:48.752Z,6.90
2023-04-16T16:43:17.054Z,7.30
2023-04-16T16:45:45.125Z,6.73
2023-04-16T16:48:13.119Z,6.60
2023-04-16T16:50:41.012Z,10.07
2023-04-16T16:53:09.260Z,6.77
2023-04-16T16:55:38.459Z,6.97
2023-04-16T16:58:06.300Z,6.50
2023-04-16T17:00:34.241Z,6.67
2023-04-16T17:03:02.333Z,6.37
2023-04-16T17:05:30.408Z,6.73
2023-04-16T17:07:58.290Z,6.87
2023-04-16T17:10:26.354Z,6.43
2023-04-16T17:12:55.697Z,7.03
2023-04-16T17:15:23.572Z,6.80
2023-04-16T17:17:51.530Z,7.13
2023-04-16T17:20:20.032Z,7.17
2023-04-16T17:22:48.030Z,6.63
2023-04-16T17:25:16.274Z,7.40
2023-04-16T17:27:44.187Z,7.37
2023-04-16T17:30:13.954Z,7.37
2023-04-16T17:32:41.813Z,7.70
2023-04-16T17:35:11.034Z,7.73
2023-04-16T17:37:39.029Z,7.20
2023-04-16T17:40:09.704Z,7.57
2023-04-16T17:42:37.947Z,6.90
2023-04-16T17:45:06.578Z,7.30
2023-04-16T17:47:37.081Z,7.67
2023-04-16T17:50:05.878Z,8.57
2023-04-16T17:52:33.725Z,8.13
2023-04-16T17:55:01.752Z,8.07
2023-04-16T17:57:29.749Z,7.80
2023-04-16T17:59:58.096Z,7.80
2023-04-16T18:02:26.374Z,8.07
2023-04-16T18:04:56.324Z,8.23
2023-04-16T18:07:24.209Z,8.30
2023-04-16T18:09:52.033Z,8.10
2023-04-16T18:12:20.106Z,7.47
2023-04-16T18:14:48.001Z,7.87
2023-04-16T18:17:16.025Z,7.60
2023-04-16T18:19:44.838Z,7.70
2023-04-16T18:22:14.028Z,8.63
2023-04-16T18:24:41.909Z,8.20
2023-04-16T18:27:09.889Z,8.30
2023-04-16T18:29:40.003Z,8.00
2023-04-16T18:32:11.773Z,8.80
2023-04-16T18:34:40.268Z,8.20
2023-04-16T18:37:08.235Z,8.20
2023-04-16T18:39:37.745Z,8.00
2023-04-16T18:42:06.331Z,8.67
2023-04-16T18:44:34.225Z,8.27
2023-04-16T18:47:02.241Z,8.30
2023-04-16T18:49:30.150Z,8.07
2023-04-16T18:51:58.181Z,8.40
2023-04-16T18:54:26.012Z,8.47
2023-04-16T18:56:55.350Z,8.10
2023-04-16T18:59:23.284Z,8.27
2023-04-16T19:01:51.215Z,8.00
2023-04-16T19:04:19.500Z,8.27
2023-04-16T19:06:48.546Z,8.33
2023-04-16T19:09:16.943Z,8.80
2023-04-16T19:11:45.187Z,7.77
2023-04-16T19:14:14.381Z,8.67
2023-04-16T19:16:42.571Z,8.03
2023-04-16T19:19:10.624Z,9.03
2023-04-16T19:21:38.704Z,8.83
2023-04-16T19:24:07.227Z,8.17
2023-04-16T19:26:35.168Z,9.37
2023-04-16T19:29:03.526Z,9.13
2023-04-16T19:31:32.749Z,9.20
2023-04-16T19:34:00.565Z,9.40
2023-04-16T19:36:28.458Z,10.10
2023-04-16T19:38:56.254Z,10.00
2023-04-16T19:41:24.162Z,10.00
2023-04-16T19:43:51.964Z,9.23
2023-04-16T19:46:19.844Z,9.80
2023-04-16T19:48:49.388Z,9.83
2023-04-16T19:51:17.333Z,10.00
2023-04-16T19:53:45.369Z,10.20
2023-04-16T19:56:14.054Z,10.27
2023-04-16T19:58:41.892Z,10.03
2023-04-16T20:01:10.646Z,10.07
2023-04-16T20:03:38.736Z,11.23
2023-04-16T20:06:08.034Z,11.00
2023-04-16T20:08:36.072Z,10.30
2023-04-16T20:11:04.040Z,10.40
2023-04-16T20:13:31.978Z,11.27
2023-04-16T20:16:01.213Z,11.03
2023-04-16T20:18:29.058Z,11.27
2023-04-16T20:20:56.972Z,10.30
2023-04-16T20:23:26.238Z,11.03
2023-04-16T20:25:54.133Z,11.70
2023-04-16T20:28:22.245Z,10.80
2023-04-16T20:30:51.009Z,11.27
2023-04-16T20:33:19.121Z,12.17
2023-04-16T20:35:47.248Z,10.70
2023-04-16T20:38:15.137Z,11.20
2023-04-16T20:40:47.188Z,11.63
2023-04-16T20:43:18.741Z,12.30
2023-04-16T20:45:46.583Z,11.37
2023-04-16T20:48:14.569Z,10.77
2023-04-16T20:50:42.445Z,11.77
2023-04-16T20:53:10.448Z,11.50
2023-04-16T20:55:38.405Z,11.70
2023-04-16T20:58:07.610Z,11.13
2023-04-16T21:00:36.107Z,11.63
2023-04-16T21:03:04.173Z,11.17
2023-04-16T21:05:33.980Z,11.17
2023-04-16T21:08:01.727Z,11.73
2023-04-16T21:10:29.523Z,12.03
2023-04-16T21:12:57.304Z,11.47
2023-04-16T21:15:26.602Z,11.53
2023-04-16T21:17:54.494Z,11.60
2023-04-16T21:20:22.349Z,12.67
2023-04-16T21:22:51.218Z,11.80
2023-04-16T21:25:19.097Z,11.63
2023-04-16T21:27:46.952Z,11.97
2023-04-16T21:30:15.802Z,12.33
2023-04-16T21:32:45.228Z,11.00
2023-04-16T21:35:13.323Z,11.80
2023-04-16T21:37:41.186Z,12.30
2023-04-16T21:40:09.791Z,12.50
2023-04-16T21:42:39.791Z,11.40
2023-04-16T21:45:09.092Z,11.93
2023-04-16T21:47:37.245Z,11.33
2023-04-16T21:50:07.340Z,11.40
2023-04-16T21:52:40.445Z,11.67
2023-04-16T21:55:10.286Z,12.17
2023-04-16T21:57:38.232Z,12.00
2023-04-16T22:00:09.204Z,12.77
2023-04-16T22:02:37.160Z,11.80
2023-04-16T22:05:07.478Z,12.53
2023-04-16T22:07:36.455Z,12.23
2023-04-16T22:10:04.501Z,12.10
2023-04-16T22:12:32.464Z,12.03
2023-04-16T22:15:02.718Z,12.50
2023-04-16T22:17:31.238Z,12.70
2023-04-16T22:20:00.726Z,13.63
2023-04-16T22:22:30.018Z,12.50
2023-04-16T22:24:57.893Z,12.47
2023-04-16T22:27:26.099Z,12.60
2023-04-16T22:29:53.912Z,13.37
2023-04-16T22:32:21.823Z,12.63
2023-04-16T22:34:49.725Z,12.47
2023-04-16T22:37:17.661Z,13.67
2023-04-16T22:39:46.861Z,13.07
2023-04-16T22:42:14.713Z,12.67
2023-04-16T22:44:42.546Z,12.77
2023-04-16T22:47:10.386Z,12.40
2023-04-16T22:49:38.326Z,12.70
2023-04-16T22:52:06.305Z,12.10
2023-04-16T22:54:34.694Z,13.20
2023-04-16T22:57:03.880Z,12.90
2023-04-16T22:59:32.257Z,11.73
2023-04-16T23:02:00.203Z,12.27
2023-04-16T23:04:28.103Z,11.47
2023-04-16T23:06:56.295Z,12.63
2023-04-16T23:09:24.368Z,12.63
2023-04-16T23:11:52.207Z,13.60
2023-04-16T23:14:21.460Z,12.70
2023-04-16T23:16:49.353Z,12.57
2023-04-16T23:19:17.176Z,12.30
2023-04-16T23:21:45.207Z,12.67
2023-04-16T23:24:13.232Z,12.33
2023-04-16T23:26:41.160Z,12.77
2023-04-16T23:29:08.998Z,12.93
2023-04-16T23:31:38.250Z,11.97
2023-04-16T23:34:06.057Z,12.27
2023-04-16T23:36:33.921Z,11.73
2023-04-16T23:39:01.746Z,12.53
2023-04-16T23:41:29.647Z,13.47
2023-04-16T23:43:57.634Z,12.93
2023-04-16T23:46:25.628Z,12.97
2023-04-16T23:48:55.294Z,13.00
2023-04-16T23:51:23.347Z,12.83
2023-04-16T23:53:51.169Z,12.40
2023-04-16T23:56:18.946Z,13.00
2023-04-16T23:58:46.791Z,11.67
